Terminal Aerodrome Forecast
Issued by NWS

Home | Current Version | Previous Version | Text Only | Print | Product List | Glossary On
Versions: 1 2 3 4 5 6 7 8 9 10 11 12 13 14 15 16 17 18
000
FTUS43 KFGF 250500
TAFTVF
TAF
KTVF 250520Z 2506/2606 VRB04KT P6SM OVC006
     FM250700 VRB03KT 3SM BR OVC004
      TEMPO 2507/2511 VRB03KT 1/2SM FG OVC002
     FM251500 33006KT P6SM BKN015
     FM251800 35009KT P6SM BKN025
      AMD LTD TO CLD VIS AND WIND=

USA.gov is the U.S. government's official web portal to all federal, state and local government web resources and services.